NK57 weather

Ross Heliport
Niagara Falls, New York, United States

Public forecast

Using degrees Fahrenheit for public forecast. Weather courtesy of forecast.io.

METAR (pilot weather report)

Closest report is Niagara Falls International Airport, 0.9 nm (1.6 km) SSW. Retrieved 2019/09/18 15:53 UTC (43 minutes ago):

KIAG 181553Z 12004KT 10SM CLR 21/11 A3027 RMK AO2 SLP249 T02110106

TAF (pilot weather forecast)

Closest forecast is Niagara Falls International Airport, 0.9 nm (1.6 km) SSW. Retrieved 2019/09/18 12:22 UTC (4 hours ago):

TAF KIAG 181120Z 1812/1912 VRB03KT P6SM FEW250 FM181800 09009KT P6SM FEW250 FM190300 12006KT P6SM FEW250 FM190800 16005KT P6SM FEW200